DLH901 EGLL-EDDF
Flight info
| Callsign | DLH901 |
|---|---|
| Flight time | 1h 5m |
| Altitude | 35000 |
| Route | BPK Q295 MATCH DCT REDFA DCT TACHA DCT NOLRU DCT DIXAT DIXAT1A |
| Aircraft | A21N/M-SDE2E3FGHIRWXY/LB1 |
Departure
| Time | 2026-05-07 07:27 |
|---|---|
| Airport | London Heathrow Airport (EGLL) |
Arrival
| Time | 2026-05-07 08:32 |
|---|---|
| Airport | Frankfurt Main Airport (EDDF) |
| Time | Latitude | Longitude | Altitude | Speed | Heading |
|---|---|---|---|---|---|
| 2026-05-07 07:12 | 51.46984 | -0.47717 | 89 ft | 0 kts | 90° |
| 2026-05-07 07:20 | 51.46984 | -0.47735 | 93 ft | 2 kts | 90° |
| 2026-05-07 07:20 | 51.46984 | -0.47761 | 90 ft | 2 kts | 92° |
| 2026-05-07 07:20 | 51.46985 | -0.47788 | 91 ft | 2 kts | 94° |
| 2026-05-07 07:21 | 51.46987 | -0.47814 | 91 ft | 2 kts | 98° |
| 2026-05-07 07:21 | 51.46990 | -0.47839 | 90 ft | 2 kts | 107° |
| 2026-05-07 07:21 | 51.46997 | -0.47862 | 93 ft | 2 kts | 141° |
| 2026-05-07 07:21 | 51.47008 | -0.47870 | 90 ft | 1 kts | 176° |
| 2026-05-07 07:23 | 51.47004 | -0.47869 | 92 ft | 4 kts | 177° |
| 2026-05-07 07:23 | 51.46950 | -0.47868 | 89 ft | 9 kts | 179° |
| 2026-05-07 07:23 | 51.46887 | -0.47867 | 89 ft | 9 kts | 180° |
| 2026-05-07 07:23 | 51.46822 | -0.47868 | 89 ft | 10 kts | 180° |
| 2026-05-07 07:24 | 51.46743 | -0.47869 | 89 ft | 12 kts | 180° |
| 2026-05-07 07:24 | 51.46663 | -0.47908 | 90 ft | 13 kts | 237° |
| 2026-05-07 07:24 | 51.46653 | -0.48060 | 89 ft | 15 kts | 271° |
| 2026-05-07 07:24 | 51.46654 | -0.48237 | 89 ft | 17 kts | 269° |
| 2026-05-07 07:25 | 51.46635 | -0.48730 | 90 ft | 22 kts | 225° |
| 2026-05-07 07:25 | 51.46503 | -0.48753 | 92 ft | 20 kts | 137° |
| 2026-05-07 07:25 | 51.46479 | -0.48543 | 89 ft | 30 kts | 90° |
| 2026-05-07 07:26 | 51.46479 | -0.47866 | 90 ft | 92 kts | 90° |
| 2026-05-07 07:26 | 51.46481 | -0.46474 | 92 ft | 156 kts | 91° |
| 2026-05-07 07:26 | 51.46487 | -0.44546 | 270 ft | 184 kts | 89° |
| 2026-05-07 07:26 | 51.46552 | -0.42418 | 677 ft | 196 kts | 86° |
| 2026-05-07 07:27 | 51.46697 | -0.40202 | 1289 ft | 200 kts | 77° |
| 2026-05-07 07:27 | 51.47436 | -0.38422 | 2126 ft | 195 kts | 42° |
| 2026-05-07 07:27 | 51.48555 | -0.37028 | 2471 ft | 214 kts | 38° |
| 2026-05-07 07:27 | 51.49791 | -0.35447 | 2650 ft | 242 kts | 41° |
| 2026-05-07 07:28 | 51.51084 | -0.33561 | 3140 ft | 257 kts | 47° |
| 2026-05-07 07:28 | 51.52002 | -0.31091 | 3862 ft | 262 kts | 69° |
| 2026-05-07 07:28 | 51.52646 | -0.28365 | 4628 ft | 266 kts | 70° |
| 2026-05-07 07:28 | 51.53248 | -0.25581 | 5390 ft | 270 kts | 71° |
| 2026-05-07 07:29 | 51.53859 | -0.22716 | 5896 ft | 273 kts | 70° |
| 2026-05-07 07:29 | 51.54686 | -0.19990 | 6056 ft | 272 kts | 49° |
| 2026-05-07 07:29 | 51.56200 | -0.18277 | 6075 ft | 268 kts | 15° |
| 2026-05-07 07:29 | 51.58037 | -0.17853 | 6077 ft | 269 kts | 4° |
| 2026-05-07 07:30 | 51.59904 | -0.17410 | 6076 ft | 273 kts | 12° |
| 2026-05-07 07:30 | 51.61759 | -0.16687 | 6074 ft | 274 kts | 14° |
| 2026-05-07 07:30 | 51.63599 | -0.15886 | 6076 ft | 274 kts | 15° |
| 2026-05-07 07:30 | 51.65436 | -0.15059 | 6075 ft | 274 kts | 15° |
| 2026-05-07 07:31 | 51.67245 | -0.14235 | 6077 ft | 274 kts | 15° |
| 2026-05-07 07:31 | 51.69080 | -0.13393 | 6075 ft | 274 kts | 15° |
| 2026-05-07 07:31 | 51.70918 | -0.12549 | 6077 ft | 274 kts | 15° |
| 2026-05-07 07:31 | 51.72735 | -0.11624 | 6077 ft | 275 kts | 23° |
| 2026-05-07 07:32 | 51.74302 | -0.09888 | 6318 ft | 278 kts | 49° |
| 2026-05-07 07:32 | 51.75235 | -0.07166 | 7009 ft | 280 kts | 71° |
| 2026-05-07 07:32 | 51.75736 | -0.04142 | 7877 ft | 279 kts | 79° |
| 2026-05-07 07:32 | 51.76042 | -0.01031 | 8705 ft | 282 kts | 83° |
| 2026-05-07 07:33 | 51.76257 | 0.02129 | 9518 ft | 285 kts | 84° |
| 2026-05-07 07:33 | 51.76445 | 0.05281 | 10255 ft | 289 kts | 84° |
| 2026-05-07 07:33 | 51.76653 | 0.08616 | 10614 ft | 309 kts | 83° |
| 2026-05-07 07:33 | 51.76900 | 0.12177 | 10888 ft | 329 kts | 83° |
| 2026-05-07 07:34 | 51.77186 | 0.15958 | 11162 ft | 349 kts | 82° |
| 2026-05-07 07:34 | 51.77504 | 0.19949 | 11438 ft | 368 kts | 82° |
| 2026-05-07 07:34 | 51.77902 | 0.24124 | 11685 ft | 385 kts | 78° |
| 2026-05-07 07:34 | 51.78488 | 0.28422 | 12031 ft | 397 kts | 76° |
| 2026-05-07 07:35 | 51.79143 | 0.32791 | 12561 ft | 404 kts | 75° |
| 2026-05-07 07:35 | 51.79841 | 0.37217 | 13131 ft | 409 kts | 75° |
| 2026-05-07 07:35 | 51.80549 | 0.41613 | 13756 ft | 412 kts | 75° |
| 2026-05-07 07:35 | 51.81279 | 0.46136 | 14287 ft | 417 kts | 75° |
| 2026-05-07 07:36 | 51.82010 | 0.50687 | 14854 ft | 420 kts | 75° |
| 2026-05-07 07:36 | 51.82744 | 0.55286 | 15383 ft | 424 kts | 75° |
| 2026-05-07 07:36 | 51.83478 | 0.59921 | 15942 ft | 427 kts | 75° |
| 2026-05-07 07:36 | 51.84213 | 0.64592 | 16487 ft | 431 kts | 75° |
| 2026-05-07 07:37 | 51.84950 | 0.69300 | 17008 ft | 434 kts | 76° |
| 2026-05-07 07:37 | 51.85693 | 0.74063 | 17542 ft | 437 kts | 76° |
| 2026-05-07 07:37 | 51.86427 | 0.78779 | 18051 ft | 441 kts | 76° |
| 2026-05-07 07:37 | 51.87176 | 0.83611 | 18528 ft | 444 kts | 76° |
| 2026-05-07 07:38 | 51.87927 | 0.88469 | 18972 ft | 447 kts | 76° |
| 2026-05-07 07:38 | 51.88681 | 0.93362 | 19438 ft | 449 kts | 76° |
| 2026-05-07 07:38 | 51.89438 | 0.98284 | 19871 ft | 452 kts | 76° |
| 2026-05-07 07:38 | 51.90197 | 1.03235 | 20317 ft | 455 kts | 76° |
| 2026-05-07 07:39 | 51.90961 | 1.08230 | 20716 ft | 458 kts | 76° |
| 2026-05-07 07:39 | 51.91726 | 1.13252 | 21178 ft | 460 kts | 76° |
| 2026-05-07 07:39 | 51.92482 | 1.18231 | 21565 ft | 464 kts | 76° |
| 2026-05-07 07:39 | 51.93251 | 1.23308 | 22012 ft | 465 kts | 76° |
| 2026-05-07 07:40 | 51.94023 | 1.28422 | 22438 ft | 469 kts | 76° |
| 2026-05-07 07:40 | 51.94797 | 1.33565 | 22898 ft | 470 kts | 76° |
| 2026-05-07 07:40 | 51.95570 | 1.38724 | 23361 ft | 472 kts | 76° |
| 2026-05-07 07:40 | 51.96341 | 1.43885 | 23895 ft | 470 kts | 76° |
| 2026-05-07 07:41 | 51.97105 | 1.49017 | 24433 ft | 467 kts | 76° |
| 2026-05-07 07:41 | 51.97864 | 1.54125 | 24876 ft | 466 kts | 76° |
| 2026-05-07 07:41 | 51.98618 | 1.59226 | 25393 ft | 464 kts | 76° |
| 2026-05-07 07:41 | 51.99368 | 1.64309 | 25864 ft | 462 kts | 76° |
| 2026-05-07 07:42 | 52.00101 | 1.69292 | 26342 ft | 460 kts | 76° |
| 2026-05-07 07:42 | 52.00840 | 1.74336 | 26780 ft | 458 kts | 76° |
| 2026-05-07 07:42 | 52.01573 | 1.79354 | 27243 ft | 456 kts | 76° |
| 2026-05-07 07:42 | 52.02302 | 1.84363 | 27666 ft | 455 kts | 76° |
| 2026-05-07 07:43 | 52.03027 | 1.89359 | 28100 ft | 453 kts | 76° |
| 2026-05-07 07:43 | 52.03741 | 1.94311 | 28708 ft | 447 kts | 76° |
| 2026-05-07 07:43 | 52.04445 | 1.99202 | 29161 ft | 445 kts | 76° |
| 2026-05-07 07:43 | 52.05152 | 2.04113 | 29418 ft | 446 kts | 76° |
| 2026-05-07 07:44 | 52.05856 | 2.09020 | 29742 ft | 447 kts | 76° |
| 2026-05-07 07:44 | 52.06557 | 2.13927 | 30134 ft | 445 kts | 76° |
| 2026-05-07 07:44 | 52.07244 | 2.18743 | 30443 ft | 444 kts | 76° |
| 2026-05-07 07:44 | 52.07938 | 2.23637 | 30696 ft | 444 kts | 76° |
| 2026-05-07 07:45 | 52.08630 | 2.28522 | 30958 ft | 443 kts | 76° |
| 2026-05-07 07:45 | 52.09318 | 2.33403 | 31176 ft | 444 kts | 76° |
| 2026-05-07 07:45 | 52.10004 | 2.38289 | 31443 ft | 443 kts | 76° |
| 2026-05-07 07:45 | 52.10690 | 2.43184 | 31649 ft | 443 kts | 76° |
| 2026-05-07 07:46 | 52.11378 | 2.48072 | 31859 ft | 444 kts | 75° |
| 2026-05-07 07:46 | 52.13060 | 2.57740 | 32083 ft | 448 kts | 72° |
| 2026-05-07 07:46 | 52.14002 | 2.62573 | 32335 ft | 447 kts | 71° |
| 2026-05-07 07:47 | 52.14951 | 2.67387 | 32596 ft | 446 kts | 71° |
| 2026-05-07 07:47 | 52.15893 | 2.72190 | 32823 ft | 446 kts | 72° |
| 2026-05-07 07:47 | 52.16826 | 2.77006 | 33017 ft | 445 kts | 72° |
| 2026-05-07 07:47 | 52.17746 | 2.81820 | 33233 ft | 445 kts | 72° |
| 2026-05-07 07:48 | 52.18658 | 2.86640 | 33419 ft | 445 kts | 72° |
| 2026-05-07 07:48 | 52.19561 | 2.91449 | 33612 ft | 445 kts | 72° |
| 2026-05-07 07:48 | 52.20462 | 2.96268 | 33797 ft | 444 kts | 72° |
| 2026-05-07 07:49 | 52.22263 | 3.05949 | 33809 ft | 452 kts | 72° |
| 2026-05-07 07:49 | 52.23173 | 3.10853 | 33971 ft | 452 kts | 73° |
| 2026-05-07 07:49 | 52.24008 | 3.15777 | 34199 ft | 450 kts | 78° |
| 2026-05-07 07:49 | 52.24460 | 3.20820 | 34379 ft | 448 kts | 86° |
| 2026-05-07 07:50 | 52.24425 | 3.25877 | 34675 ft | 444 kts | 95° |
| 2026-05-07 07:50 | 52.22963 | 3.35610 | 34721 ft | 450 kts | 109° |
| 2026-05-07 07:51 | 52.20723 | 3.45169 | 34852 ft | 452 kts | 112° |
| 2026-05-07 07:51 | 52.18356 | 3.54695 | 35035 ft | 453 kts | 112° |
| 2026-05-07 07:52 | 52.16007 | 3.64240 | 35068 ft | 454 kts | 112° |
| 2026-05-07 07:52 | 52.13683 | 3.73789 | 35068 ft | 453 kts | 112° |
| 2026-05-07 07:53 | 52.11381 | 3.83258 | 35067 ft | 453 kts | 112° |
| 2026-05-07 07:53 | 52.09055 | 3.92788 | 35053 ft | 453 kts | 112° |
| 2026-05-07 07:54 | 52.06725 | 4.02287 | 35059 ft | 453 kts | 112° |
| 2026-05-07 07:54 | 52.04383 | 4.11789 | 35049 ft | 452 kts | 112° |
| 2026-05-07 07:55 | 52.02052 | 4.21205 | 35046 ft | 453 kts | 112° |
| 2026-05-07 07:55 | 51.99698 | 4.30673 | 35046 ft | 452 kts | 112° |
| 2026-05-07 07:56 | 51.97335 | 4.40141 | 35044 ft | 453 kts | 112° |
| 2026-05-07 07:56 | 51.94974 | 4.49555 | 35048 ft | 452 kts | 112° |
| 2026-05-07 07:57 | 51.93000 | 4.57400 | 35053 ft | 452 kts | 113° |
| 2026-05-07 07:57 | 51.90621 | 4.66814 | 35043 ft | 452 kts | 113° |
| 2026-05-07 07:58 | 51.87847 | 4.77745 | 35035 ft | 452 kts | 113° |
| 2026-05-07 07:58 | 51.85860 | 4.85540 | 35052 ft | 452 kts | 113° |
| 2026-05-07 07:59 | 51.83457 | 4.94931 | 35044 ft | 452 kts | 113° |
| 2026-05-07 07:59 | 51.81051 | 5.04294 | 35033 ft | 452 kts | 113° |
| 2026-05-07 08:00 | 51.78635 | 5.13660 | 35047 ft | 452 kts | 113° |
| 2026-05-07 08:00 | 51.76226 | 5.22957 | 35042 ft | 452 kts | 113° |
| 2026-05-07 08:01 | 51.73794 | 5.32306 | 35044 ft | 452 kts | 113° |
| 2026-05-07 08:01 | 51.71353 | 5.41648 | 35040 ft | 452 kts | 113° |
| 2026-05-07 08:02 | 51.68906 | 5.50977 | 35047 ft | 452 kts | 113° |
| 2026-05-07 08:02 | 51.66469 | 5.60230 | 35045 ft | 452 kts | 114° |
| 2026-05-07 08:03 | 51.64006 | 5.69544 | 35049 ft | 452 kts | 113° |
| 2026-05-07 08:03 | 51.61536 | 5.78845 | 35047 ft | 452 kts | 114° |
| 2026-05-07 08:04 | 51.59058 | 5.88138 | 35047 ft | 452 kts | 113° |
| 2026-05-07 08:04 | 51.56591 | 5.97355 | 35048 ft | 452 kts | 113° |
| 2026-05-07 08:05 | 51.54096 | 6.06642 | 35041 ft | 452 kts | 114° |
| 2026-05-07 08:05 | 51.51598 | 6.15899 | 35049 ft | 452 kts | 114° |
| 2026-05-07 08:06 | 51.49165 | 6.25202 | 34944 ft | 453 kts | 112° |
| 2026-05-07 08:06 | 51.48008 | 6.29927 | 34708 ft | 455 kts | 111° |
| 2026-05-07 08:06 | 51.46852 | 6.34666 | 34471 ft | 457 kts | 111° |
| 2026-05-07 08:06 | 51.45709 | 6.39333 | 34236 ft | 456 kts | 111° |
| 2026-05-07 08:07 | 51.44550 | 6.44053 | 33992 ft | 455 kts | 111° |
| 2026-05-07 08:07 | 51.43389 | 6.48765 | 33703 ft | 454 kts | 111° |
| 2026-05-07 08:07 | 51.42226 | 6.53477 | 33428 ft | 455 kts | 111° |
| 2026-05-07 08:07 | 51.41058 | 6.58193 | 33158 ft | 455 kts | 111° |
| 2026-05-07 08:08 | 51.39891 | 6.62898 | 32886 ft | 456 kts | 111° |
| 2026-05-07 08:08 | 51.38725 | 6.67584 | 32608 ft | 457 kts | 111° |
| 2026-05-07 08:08 | 51.37550 | 6.72298 | 32338 ft | 457 kts | 111° |
| 2026-05-07 08:08 | 51.36375 | 6.77002 | 32072 ft | 457 kts | 111° |
| 2026-05-07 08:09 | 51.35206 | 6.81668 | 31808 ft | 458 kts | 111° |
| 2026-05-07 08:09 | 51.34021 | 6.86394 | 31540 ft | 459 kts | 111° |
| 2026-05-07 08:09 | 51.32831 | 6.91126 | 31307 ft | 459 kts | 111° |
| 2026-05-07 08:09 | 51.31641 | 6.95852 | 31045 ft | 459 kts | 111° |
| 2026-05-07 08:10 | 51.30447 | 7.00580 | 30784 ft | 459 kts | 111° |
| 2026-05-07 08:10 | 51.29246 | 7.05312 | 30537 ft | 460 kts | 112° |
| 2026-05-07 08:10 | 51.27824 | 7.09881 | 30286 ft | 460 kts | 121° |
| 2026-05-07 08:10 | 51.25907 | 7.13958 | 30029 ft | 460 kts | 133° |
| 2026-05-07 08:11 | 51.23543 | 7.17293 | 29749 ft | 460 kts | 145° |
| 2026-05-07 08:11 | 51.20795 | 7.19893 | 29462 ft | 460 kts | 153° |
| 2026-05-07 08:11 | 51.17937 | 7.22180 | 28954 ft | 460 kts | 154° |
| 2026-05-07 08:11 | 51.15064 | 7.24421 | 28100 ft | 460 kts | 154° |
| 2026-05-07 08:12 | 51.12190 | 7.26667 | 27243 ft | 460 kts | 154° |
| 2026-05-07 08:12 | 51.09335 | 7.28973 | 26354 ft | 461 kts | 153° |
| 2026-05-07 08:12 | 51.06473 | 7.31321 | 25559 ft | 465 kts | 153° |
| 2026-05-07 08:12 | 51.03583 | 7.33698 | 24638 ft | 472 kts | 153° |
| 2026-05-07 08:13 | 51.00649 | 7.36115 | 24123 ft | 476 kts | 153° |
| 2026-05-07 08:13 | 50.97708 | 7.38535 | 23556 ft | 477 kts | 153° |
| 2026-05-07 08:13 | 50.94751 | 7.40965 | 22901 ft | 478 kts | 153° |
| 2026-05-07 08:13 | 50.91842 | 7.43352 | 22331 ft | 475 kts | 153° |
| 2026-05-07 08:14 | 50.88925 | 7.45742 | 21762 ft | 470 kts | 153° |
| 2026-05-07 08:14 | 50.86027 | 7.48113 | 21194 ft | 466 kts | 153° |
| 2026-05-07 08:14 | 50.83156 | 7.50458 | 20629 ft | 462 kts | 153° |
| 2026-05-07 08:14 | 50.80313 | 7.52778 | 20071 ft | 458 kts | 153° |
| 2026-05-07 08:15 | 50.77541 | 7.55036 | 19522 ft | 455 kts | 153° |
| 2026-05-07 08:15 | 50.74761 | 7.57298 | 18972 ft | 452 kts | 153° |
| 2026-05-07 08:15 | 50.71969 | 7.59566 | 18423 ft | 450 kts | 153° |
| 2026-05-07 08:15 | 50.69189 | 7.61823 | 17816 ft | 448 kts | 153° |
| 2026-05-07 08:16 | 50.66484 | 7.64015 | 17284 ft | 444 kts | 153° |
| 2026-05-07 08:16 | 50.63748 | 7.66229 | 16747 ft | 441 kts | 153° |
| 2026-05-07 08:16 | 50.61058 | 7.68404 | 16216 ft | 439 kts | 153° |
| 2026-05-07 08:16 | 50.58351 | 7.70588 | 15695 ft | 435 kts | 153° |
| 2026-05-07 08:17 | 50.55661 | 7.72755 | 15175 ft | 433 kts | 153° |
| 2026-05-07 08:17 | 50.53034 | 7.75011 | 14638 ft | 429 kts | 147° |
| 2026-05-07 08:17 | 50.50707 | 7.77891 | 14135 ft | 425 kts | 134° |
| 2026-05-07 08:17 | 50.48913 | 7.81547 | 13641 ft | 423 kts | 117° |
| 2026-05-07 08:18 | 50.47767 | 7.85762 | 13373 ft | 419 kts | 108° |
| 2026-05-07 08:18 | 50.46834 | 7.90020 | 13122 ft | 418 kts | 107° |
| 2026-05-07 08:18 | 50.45929 | 7.94333 | 12861 ft | 416 kts | 107° |
| 2026-05-07 08:18 | 50.45031 | 7.98633 | 12588 ft | 413 kts | 107° |
| 2026-05-07 08:19 | 50.44135 | 8.02910 | 12320 ft | 411 kts | 107° |
| 2026-05-07 08:19 | 50.43245 | 8.07153 | 12071 ft | 409 kts | 107° |
| 2026-05-07 08:19 | 50.42354 | 8.11386 | 11814 ft | 407 kts | 107° |
| 2026-05-07 08:19 | 50.41466 | 8.15594 | 11560 ft | 406 kts | 107° |
| 2026-05-07 08:20 | 50.40593 | 8.19725 | 11311 ft | 404 kts | 107° |
| 2026-05-07 08:20 | 50.39710 | 8.23891 | 11061 ft | 402 kts | 107° |
| 2026-05-07 08:20 | 50.38830 | 8.28035 | 10812 ft | 400 kts | 107° |
| 2026-05-07 08:20 | 50.37952 | 8.32161 | 10558 ft | 398 kts | 107° |
| 2026-05-07 08:21 | 50.37076 | 8.36272 | 10343 ft | 397 kts | 107° |
| 2026-05-07 08:21 | 50.36200 | 8.40373 | 10094 ft | 396 kts | 107° |
| 2026-05-07 08:21 | 50.35326 | 8.44459 | 9995 ft | 394 kts | 107° |
| 2026-05-07 08:21 | 50.34479 | 8.48396 | 9998 ft | 369 kts | 107° |
| 2026-05-07 08:22 | 50.33694 | 8.52042 | 9968 ft | 348 kts | 107° |
| 2026-05-07 08:22 | 50.32941 | 8.55549 | 9724 ft | 334 kts | 107° |
| 2026-05-07 08:22 | 50.32213 | 8.58927 | 9460 ft | 321 kts | 107° |
| 2026-05-07 08:22 | 50.31509 | 8.62185 | 9207 ft | 310 kts | 107° |
| 2026-05-07 08:23 | 50.30833 | 8.65309 | 8947 ft | 300 kts | 107° |
| 2026-05-07 08:23 | 50.30173 | 8.68362 | 8707 ft | 292 kts | 107° |
| 2026-05-07 08:23 | 50.29544 | 8.71337 | 8377 ft | 286 kts | 107° |
| 2026-05-07 08:23 | 50.28904 | 8.74281 | 7926 ft | 286 kts | 107° |
| 2026-05-07 08:24 | 50.28270 | 8.77174 | 7508 ft | 284 kts | 107° |
| 2026-05-07 08:24 | 50.27629 | 8.80097 | 7092 ft | 283 kts | 107° |
| 2026-05-07 08:24 | 50.26993 | 8.83001 | 6690 ft | 281 kts | 107° |
| 2026-05-07 08:24 | 50.26370 | 8.85845 | 6284 ft | 279 kts | 107° |
| 2026-05-07 08:25 | 50.25498 | 8.88559 | 5858 ft | 278 kts | 130° |
| 2026-05-07 08:25 | 50.24000 | 8.90339 | 5639 ft | 268 kts | 155° |
| 2026-05-07 08:25 | 50.22299 | 8.91318 | 5521 ft | 250 kts | 162° |
| 2026-05-07 08:25 | 50.20693 | 8.92067 | 5118 ft | 236 kts | 163° |
| 2026-05-07 08:26 | 50.17577 | 8.93449 | 4033 ft | 235 kts | 163° |
| 2026-05-07 08:26 | 50.15987 | 8.94011 | 3744 ft | 233 kts | 180° |
| 2026-05-07 08:26 | 50.14449 | 8.93445 | 3479 ft | 229 kts | 213° |
| 2026-05-07 08:27 | 50.13187 | 8.91957 | 3459 ft | 227 kts | 222° |
| 2026-05-07 08:27 | 50.12006 | 8.90325 | 3468 ft | 226 kts | 229° |
| 2026-05-07 08:27 | 50.11102 | 8.88366 | 3459 ft | 221 kts | 246° |
| 2026-05-07 08:27 | 50.10517 | 8.86163 | 3472 ft | 220 kts | 253° |
| 2026-05-07 08:28 | 50.09997 | 8.83962 | 3481 ft | 211 kts | 253° |
| 2026-05-07 08:28 | 50.09521 | 8.81923 | 3492 ft | 195 kts | 253° |
| 2026-05-07 08:28 | 50.09079 | 8.79977 | 3361 ft | 188 kts | 254° |
| 2026-05-07 08:28 | 50.08643 | 8.78099 | 3097 ft | 186 kts | 253° |
| 2026-05-07 08:29 | 50.08205 | 8.76280 | 2835 ft | 172 kts | 252° |
| 2026-05-07 08:29 | 50.07804 | 8.74608 | 2574 ft | 157 kts | 253° |
| 2026-05-07 08:29 | 50.07441 | 8.73084 | 2377 ft | 146 kts | 254° |
| 2026-05-07 08:29 | 50.07093 | 8.71613 | 2176 ft | 145 kts | 253° |
| 2026-05-07 08:30 | 50.06743 | 8.70145 | 1980 ft | 144 kts | 253° |
| 2026-05-07 08:30 | 50.06395 | 8.68683 | 1774 ft | 144 kts | 253° |
| 2026-05-07 08:30 | 50.06046 | 8.67220 | 1573 ft | 144 kts | 253° |
| 2026-05-07 08:30 | 50.05700 | 8.65766 | 1377 ft | 143 kts | 253° |
| 2026-05-07 08:31 | 50.05355 | 8.64315 | 1177 ft | 143 kts | 252° |
| 2026-05-07 08:31 | 50.05015 | 8.62889 | 970 ft | 142 kts | 252° |
| 2026-05-07 08:31 | 50.04681 | 8.61442 | 793 ft | 142 kts | 252° |
| 2026-05-07 08:31 | 50.04335 | 8.60006 | 597 ft | 141 kts | 252° |
| 2026-05-07 08:32 | 50.03987 | 8.58598 | 404 ft | 138 kts | 251° |
| 2026-05-07 08:32 | 50.03675 | 8.57268 | 362 ft | 114 kts | 249° |
| 2026-05-07 08:32 | 50.03484 | 8.56460 | 357 ft | 60 kts | 249° |
| 2026-05-07 08:32 | 50.03448 | 8.55959 | 356 ft | 31 kts | 279° |
| 2026-05-07 08:33 | 50.03462 | 8.55832 | 352 ft | 0 kts | 279° |
| 2026-05-07 08:33 | 50.03462 | 8.55826 | 350 ft | 2 kts | 279° |
| 2026-05-07 08:33 | 50.03469 | 8.55770 | 353 ft | 8 kts | 285° |
| 2026-05-07 08:34 | 50.03512 | 8.55706 | 355 ft | 10 kts | 357° |
| 2026-05-07 08:34 | 50.03563 | 8.55773 | 353 ft | 12 kts | 66° |
| 2026-05-07 08:34 | 50.03598 | 8.55916 | 355 ft | 17 kts | 70° |
| 2026-05-07 08:34 | 50.03640 | 8.56091 | 362 ft | 16 kts | 69° |
| 2026-05-07 08:35 | 50.03679 | 8.56254 | 358 ft | 16 kts | 70° |
| 2026-05-07 08:35 | 50.03717 | 8.56413 | 360 ft | 16 kts | 69° |
| 2026-05-07 08:35 | 50.03757 | 8.56579 | 363 ft | 18 kts | 70° |
| 2026-05-07 08:35 | 50.03802 | 8.56770 | 358 ft | 20 kts | 71° |
| 2026-05-07 08:36 | 50.03854 | 8.56989 | 364 ft | 23 kts | 69° |
| 2026-05-07 08:36 | 50.03909 | 8.57218 | 367 ft | 23 kts | 69° |
| 2026-05-07 08:36 | 50.03967 | 8.57461 | 368 ft | 25 kts | 69° |
| 2026-05-07 08:36 | 50.04031 | 8.57728 | 373 ft | 27 kts | 70° |
| 2026-05-07 08:37 | 50.04093 | 8.57992 | 373 ft | 23 kts | 70° |
| 2026-05-07 08:37 | 50.04170 | 8.58159 | 371 ft | 18 kts | 26° |
| 2026-05-07 08:37 | 50.04272 | 8.58207 | 373 ft | 12 kts | 349° |
| 2026-05-07 08:37 | 50.04277 | 8.58205 | 371 ft | 0 kts | 345° |
| 2026-05-07 08:38 | 50.04281 | 8.58203 | 370 ft | 2 kts | 343° |
| 2026-05-07 08:38 | 50.04310 | 8.58190 | 371 ft | 6 kts | 342° |
| 2026-05-07 08:38 | 50.04359 | 8.58162 | 372 ft | 10 kts | 339° |
| 2026-05-07 08:38 | 50.04418 | 8.58127 | 372 ft | 9 kts | 339° |
| 2026-05-07 08:39 | 50.04512 | 8.58074 | 372 ft | 19 kts | 340° |
| 2026-05-07 08:39 | 50.04650 | 8.57994 | 366 ft | 22 kts | 340° |
| 2026-05-07 08:39 | 50.04769 | 8.57924 | 362 ft | 17 kts | 339° |
| 2026-05-07 08:39 | 50.04852 | 8.57820 | 364 ft | 15 kts | 297° |
| 2026-05-07 08:40 | 50.04893 | 8.57683 | 366 ft | 14 kts | 303° |
| 2026-05-07 08:40 | 50.04952 | 8.57669 | 364 ft | 6 kts | 26° |
| 2026-05-07 08:40 | 50.04973 | 8.57682 | 364 ft | 0 kts | 21° |